This is the latest recevied weather packets stored in our database for station/object PU5FJO-13. If no packets are shown the sender has not sent any weather packets the latest 10 day(s).
| Time | Temp. | Humidity | Pressure | Rain* | Wind** | Luminosity | Snow |
|---|---|---|---|---|---|---|---|
| 1777272365 | 20.56° C | 83% | 1010.7 hPa | - | - | - | - |
| 1777271765 | 21.11° C | 81% | 1010.5 hPa | - | - | - | - |
| 1777271165 | 20.56° C | 83% | 1010.5 hPa | - | - | - | - |
| 1777270565 | 20.56° C | 84% | 1010.5 hPa | - | - | - | - |
| 1777269965 | 21.11° C | 83% | 1011.1 hPa | - | - | - | - |
| 1777269365 | 20.56° C | 83% | 1010.7 hPa | - | - | - | - |
| 1777268765 | 20° C | 86% | 1010.7 hPa | - | - | - | - |
| 1777268165 | 21.11° C | 82% | 1010.7 hPa | - | - | - | - |
| 1777267565 | 21.11° C | 83% | 1011.1 hPa | - | - | - | - |
| 1777266965 | 21.11° C | 83% | 1011 hPa | - | - | - | - |
| 1777266365 | 21.67° C | 80% | 1011.7 hPa | - | - | - | - |
| 1777265765 | 20.56° C | 83% | 1011.5 hPa | - | - | - | - |
| 1777265165 | 21.67° C | 80% | 1011.3 hPa | - | - | - | - |
| 1777264565 | 21.11° C | 81% | 1011.1 hPa | - | - | - | - |
| 1777263965 | 22.22° C | 78% | 1011.2 hPa | - | - | - | - |
| 1777263365 | 21.67° C | 79% | 1011.3 hPa | - | - | - | - |
| 1777262765 | 22.22° C | 78% | 1011.2 hPa | - | - | - | - |
| 1777262165 | 21.67° C | 80% | 1011.4 hPa | - | - | - | - |
| 1777261565 | 21.11° C | 81% | 1011.1 hPa | - | - | - | - |
| 1777260965 | 22.22° C | 78% | 1011.1 hPa | - | - | - | - |
| 1777260365 | 21.67° C | 81% | 1011.1 hPa | - | - | - | - |
| 1777259765 | 21.67° C | 82% | 1011.1 hPa | - | - | - | - |
| 1777259165 | 21.67° C | 81% | 1011.1 hPa | - | - | - | - |
| 1777258565 | 22.22° C | 80% | 1011 hPa | - | - | - | - |
| 1777257965 | 22.22° C | 81% | 1011.1 hPa | - | - | - | - |
* Rain since midnight (hover to see other rain measurements)
** Current wind speed in m/s (hover to see current wind gust speed)